Time;durP1;ratioP1;P1;durP2;ratioP2;P2;SDS_P1;SDS_P2;PMS_P1;PMS_P2;Temp;Humidity;BMP_temperature;BMP_pressure;BME280_temperature;BME280_humidity;BME280_pressure;Samples;Min_cycle;Max_cycle;Signal;HPM_P1;HPM_P2
2022/09/30 00:00:22;;;;;;;18.63;13.10;;;5.30;99.90;;;;;;2615902;54;20408;-71
2022/09/30 00:06:09;;;;;;;19.00;13.43;;;5.20;99.90;;;;;;2614360;54;20358;-72
2022/09/30 00:11:57;;;;;;;14.67;13.10;;;5.20;99.90;;;;;;2614737;54;20475;-72
2022/09/30 00:17:45;;;;;;;14.43;12.60;;;5.40;99.90;;;;;;2615191;54;20126;-72
2022/09/30 00:23:35;;;;;;;15.43;12.03;;;5.50;99.90;;;;;;2613818;54;20650;-71
2022/09/30 00:29:22;;;;;;;19.93;13.90;;;5.60;99.90;;;;;;2615586;54;20380;-70
2022/09/30 00:35:09;;;;;;;16.77;14.02;;;5.80;99.90;;;;;;2615262;54;20374;-71
2022/09/30 00:41:00;;;;;;;19.27;13.77;;;5.80;99.90;;;;;;2614902;54;20138;-71
2022/09/30 00:46:48;;;;;;;20.70;14.00;;;5.60;99.90;;;;;;2613980;54;20418;-71
2022/09/30 00:53:13;;;;;;;17.83;12.53;;;5.30;99.90;;;;;;2615406;54;20260;-71
2022/09/30 01:05:58;;;;;;;15.43;13.60;;;5.00;99.90;;;;;;2613753;54;20535;-72
2022/09/30 01:11:46;;;;;;;17.80;13.70;;;5.00;99.90;;;;;;2613583;54;20517;-73
2022/09/30 01:23:50;;;;;;;19.67;13.80;;;5.40;99.90;;;;;;2612552;54;20483;-73
2022/09/30 01:30:02;;;;;;;17.17;13.23;;;5.20;99.90;;;;;;2614294;54;20152;-73
2022/09/30 01:46:49;;;;;;;14.77;12.90;;;4.90;99.90;;;;;;2616023;39;20803;-73
2022/09/30 02:02:27;;;;;;;16.23;13.00;;;5.00;99.90;;;;;;2614546;54;20378;-73
2022/09/30 02:08:18;;;;;;;14.70;13.20;;;4.90;99.90;;;;;;2615392;54;20509;-72
2022/09/30 02:21:03;;;;;;;18.43;13.80;;;4.70;99.90;;;;;;2612712;54;20415;-74
2022/09/30 02:26:55;;;;;;;15.45;13.85;;;4.70;99.90;;;;;;2614040;46;20523;-73
2022/09/30 02:39:06;;;;;;;17.20;15.23;;;4.60;99.90;;;;;;2614039;54;20431;-73
2022/09/30 02:58:07;;;;;;;23.53;14.47;;;4.40;99.90;;;;;;2614389;54;20426;-74
2022/09/30 03:03:58;;;;;;;17.80;15.60;;;4.40;99.90;;;;;;2613948;54;20971;-74
2022/09/30 03:09:45;;;;;;;18.60;15.93;;;4.30;99.90;;;;;;2614487;54;20467;-73
2022/09/30 03:41:09;;;;;;;19.60;16.33;;;4.60;99.90;;;;;;2616962;54;20478;-74
2022/09/30 03:47:01;;;;;;;22.40;16.20;;;4.90;99.90;;;;;;2615965;54;20413;-73
2022/09/30 03:56:12;;;;;;;19.70;16.37;;;4.70;99.90;;;;;;2617171;54;20431;-74
2022/09/30 04:02:00;;;;;;;23.33;15.60;;;4.50;99.90;;;;;;2616547;54;20510;-72
2022/09/30 04:07:48;;;;;;;18.60;14.67;;;4.40;99.90;;;;;;2616650;54;20158;-72
2022/09/30 04:13:36;;;;;;;18.23;16.33;;;4.30;99.90;;;;;;2616621;54;20122;-73
2022/09/30 04:19:24;;;;;;;21.83;15.70;;;4.30;99.90;;;;;;2616586;54;20913;-73
2022/09/30 04:25:12;;;;;;;16.97;14.83;;;4.30;99.90;;;;;;2616108;54;20122;-74
2022/09/30 04:31:02;;;;;;;23.00;15.77;;;4.30;99.90;;;;;;2617068;54;20150;-73
2022/09/30 04:36:49;;;;;;;22.47;16.37;;;4.10;99.90;;;;;;2616747;54;20434;-73
2022/09/30 04:42:41;;;;;;;18.33;15.63;;;4.00;99.90;;;;;;2615486;39;20534;-74
2022/09/30 04:48:30;;;;;;;21.67;17.10;;;3.90;99.90;;;;;;2617038;54;20398;-73
2022/09/30 04:51:35;;;;;;;18.63;16.23;;;3.90;99.90;;;;;;2616301;54;20480;-74
2022/09/30 04:54:01;;;;;;;22.37;15.20;;;3.80;99.90;;;;;;2614959;54;20506;-73
2022/09/30 04:57:04;;;;;;;18.07;16.10;;;3.80;99.90;;;;;;2614489;47;20405;-73
2022/09/30 04:59:32;;;;;;;18.73;15.03;;;3.90;99.90;;;;;;2615093;54;20417;-73
2022/09/30 05:05:20;;;;;;;18.37;15.13;;;3.80;99.90;;;;;;2616322;54;20915;-73
2022/09/30 05:11:12;;;;;;;22.00;16.43;;;3.90;99.90;;;;;;2616080;54;20137;-73
2022/09/30 05:16:59;;;;;;;16.50;14.73;;;3.80;99.90;;;;;;2613989;39;21089;-74
2022/09/30 05:22:53;;;;;;;19.70;16.00;;;3.80;99.90;;;;;;2616098;39;20989;-73
2022/09/30 05:28:41;;;;;;;21.03;16.30;;;3.70;99.90;;;;;;2615062;54;20398;-73
2022/09/30 05:34:29;;;;;;;23.17;17.80;;;3.80;99.90;;;;;;2614347;54;20386;-74
2022/09/30 05:40:17;;;;;;;24.02;17.08;;;4.00;99.90;;;;;;2615640;54;20490;-74
2022/09/30 05:46:05;;;;;;;25.07;18.70;;;4.20;99.90;;;;;;2615647;54;20121;-74
2022/09/30 05:56:08;;;;;;;22.00;19.30;;;4.10;99.90;;;;;;2614407;54;20379;-74
2022/09/30 06:01:55;;;;;;;25.07;19.90;;;4.40;99.90;;;;;;2615543;39;20717;-74
2022/09/30 06:07:43;;;;;;;23.83;18.97;;;4.40;99.90;;;;;;2615622;39;20548;-75
2022/09/30 06:13:34;;;;;;;28.00;21.52;;;4.70;99.90;;;;;;2614630;54;20576;-74
2022/09/30 06:19:22;;;;;;;28.87;21.10;;;5.10;99.90;;;;;;2613181;54;20429;-74
2022/09/30 06:25:10;;;;;;;21.30;18.40;;;6.40;99.90;;;;;;2612842;54;20395;-75
2022/09/30 06:30:58;;;;;;;20.03;17.90;;;6.80;99.90;;;;;;2614234;46;20140;-75
2022/09/30 06:36:45;;;;;;;21.08;17.58;;;7.10;99.90;;;;;;2613680;54;20170;-74
2022/09/30 06:42:33;;;;;;;20.40;18.20;;;7.50;99.90;;;;;;2615488;54;20139;-75
2022/09/30 06:48:22;;;;;;;20.00;17.52;;;8.60;99.90;;;;;;2614109;54;20426;-74
2022/09/30 06:51:37;;;;;;;22.97;17.00;;;9.00;99.90;;;;;;2614457;54;20154;-73
2022/09/30 06:54:03;;;;;;;21.17;15.40;;;9.20;99.90;;;;;;2613820;54;20422;-74
2022/09/30 06:59:51;;;;;;;19.27;17.23;;;10.10;99.90;;;;;;2615881;54;20679;-74
2022/09/30 07:05:38;;;;;;;16.70;14.97;;;11.10;99.90;;;;;;2614692;46;20410;-75
2022/09/30 07:11:26;;;;;;;15.80;14.30;;;11.70;99.90;;;;;;2612665;46;20273;-74
2022/09/30 07:17:13;;;;;;;14.50;12.77;;;11.50;99.90;;;;;;2613631;54;20181;-75
2022/09/30 07:23:01;;;;;;;14.87;13.47;;;12.00;99.90;;;;;;2613758;54;20249;-74
2022/09/30 07:28:50;;;;;;;15.03;13.43;;;12.50;99.90;;;;;;2614019;54;20131;-75
2022/09/30 07:34:42;;;;;;;18.73;13.43;;;13.10;99.90;;;;;;2614563;54;20468;-74
2022/09/30 07:40:30;;;;;;;16.57;13.70;;;14.00;99.90;;;;;;2615912;54;20388;-74
2022/09/30 07:46:23;;;;;;;16.27;13.73;;;13.50;99.90;;;;;;2615751;54;20124;-75
2022/09/30 07:56:08;;;;;;;12.50;11.33;;;14.00;99.90;;;;;;2615882;39;20788;-74
2022/09/30 08:01:55;;;;;;;13.67;10.17;;;15.00;95.50;;;;;;2613608;54;20943;-75
2022/09/30 08:07:43;;;;;;;16.27;11.97;;;14.50;95.60;;;;;;2615609;54;20423;-74
2022/09/30 08:13:31;;;;;;;12.87;11.50;;;15.00;96.30;;;;;;2613830;39;20523;-74
2022/09/30 08:19:21;;;;;;;17.13;12.23;;;13.60;99.90;;;;;;2614225;54;20490;-75
2022/09/30 08:25:09;;;;;;;16.00;14.33;;;14.90;97.00;;;;;;2611378;54;20391;-75
2022/09/30 08:31:07;;;;;;;15.57;14.07;;;14.90;97.30;;;;;;2611512;54;20134;-74
2022/09/30 08:36:55;;;;;;;14.75;13.27;;;15.60;98.00;;;;;;2614147;39;20753;-74
2022/09/30 08:42:52;;;;;;;18.37;16.47;;;16.00;89.00;;;;;;2613296;54;20218;-74
2022/09/30 09:01:57;;;;;;;17.27;14.50;;;16.50;73.60;;;;;;2613101;54;21052;-75
2022/09/30 09:20:32;;;;;;;14.33;12.67;;;16.10;66.20;;;;;;2613846;31;20971;-74
2022/09/30 09:26:19;;;;;;;13.30;12.00;;;16.40;57.90;;;;;;2612149;54;20387;-73
2022/09/30 09:51:35;;;;;;;11.47;10.27;;;17.30;51.60;;;;;;2613983;54;20975;-74
2022/09/30 09:57:31;;;;;;;12.05;10.88;;;18.30;51.40;;;;;;2613977;54;20722;-75
2022/09/30 10:03:24;;;;;;;11.00;9.90;;;17.60;50.50;;;;;;2613131;54;20387;-74
2022/09/30 10:12:51;;;;;;;10.70;9.60;;;17.00;54.50;;;;;;2613794;54;20432;-74
2022/09/30 10:18:39;;;;;;;10.13;9.23;;;17.40;50.30;;;;;;2613044;54;20523;-75
2022/09/30 10:24:30;;;;;;;8.77;7.90;;;17.20;55.80;;;;;;2612152;54;20250;-74
2022/09/30 10:30:31;;;;;;;10.43;9.33;;;18.20;46.60;;;;;;2613460;54;20396;-74
2022/09/30 10:36:21;;;;;;;14.97;9.20;;;17.10;43.40;;;;;;2613049;54;20403;-74
2022/09/30 10:48:56;;;;;;;10.40;8.83;;;18.50;41.70;;;;;;2611468;39;20747;-73
2022/09/30 10:54:55;;;;;;;10.80;9.73;;;17.80;45.70;;;;;;2612881;54;20556;-74
2022/09/30 11:00:43;;;;;;;10.70;9.50;;;18.00;46.60;;;;;;2612806;54;20378;-75
2022/09/30 11:06:35;;;;;;;9.57;8.68;;;18.50;38.80;;;;;;2612501;54;20172;-75
2022/09/30 11:31:55;;;;;;;6.30;5.70;;;17.90;35.20;;;;;;2614473;54;20419;-74
2022/09/30 11:41:50;;;;;;;7.43;6.83;;;17.70;34.10;;;;;;2614543;39;20767;-74
2022/09/30 12:04:47;;;;;;;7.85;7.13;;;18.90;29.20;;;;;;2613224;54;20367;-76
2022/09/30 12:16:49;;;;;;;8.97;8.27;;;18.40;28.50;;;;;;2613872;54;20388;-76
2022/09/30 12:22:40;;;;;;;8.67;7.00;;;18.50;26.30;;;;;;2611951;54;20640;-74
2022/09/30 12:38:32;;;;;;;13.27;8.37;;;19.10;25.60;;;;;;2614099;54;20390;-75
2022/09/30 12:44:41;;;;;;;7.83;7.23;;;19.30;23.10;;;;;;2614556;54;20376;-75
2022/09/30 12:56:54;;;;;;;8.67;7.10;;;19.30;25.70;;;;;;2615442;54;20174;-75
2022/09/30 13:09:06;;;;;;;8.13;7.33;;;18.40;24.10;;;;;;2615100;39;20774;-75
2022/09/30 13:21:42;;;;;;;6.80;6.13;;;20.00;21.50;;;;;;2614141;54;20417;-75
2022/09/30 13:27:37;;;;;;;8.10;6.70;;;18.90;24.00;;;;;;2614102;39;20462;-75
2022/09/30 13:39:51;;;;;;;9.40;7.13;;;19.00;24.90;;;;;;2615210;54;20391;-74
2022/09/30 13:45:41;;;;;;;8.13;7.00;;;19.60;24.20;;;;;;2614848;39;20647;-75
2022/09/30 13:51:32;;;;;;;9.18;7.85;;;19.10;25.00;;;;;;2612842;54;20431;-74
2022/09/30 14:13:49;;;;;;;7.83;7.10;;;19.40;18.80;;;;;;2615237;54;20391;-74
2022/09/30 14:30:30;;;;;;;6.75;6.05;;;19.50;21.90;;;;;;2612654;54;20383;-74
2022/09/30 14:36:20;;;;;;;7.13;5.87;;;21.40;19.90;;;;;;2614034;46;20424;-75
2022/09/30 14:42:13;;;;;;;7.40;5.73;;;18.40;22.70;;;;;;2611092;54;20388;-75
2022/09/30 14:54:48;;;;;;;8.00;5.13;;;18.20;24.00;;;;;;2614148;54;20418;-75
2022/09/30 15:00:36;;;;;;;5.82;5.40;;;20.90;20.60;;;;;;2613723;54;20395;-75
2022/09/30 15:12:51;;;;;;;5.53;5.10;;;20.10;21.20;;;;;;2614427;54;20969;-74
2022/09/30 15:18:44;;;;;;;6.20;5.60;;;18.40;22.70;;;;;;2614674;54;20143;-74
2022/09/30 15:24:34;;;;;;;5.60;5.10;;;17.00;26.00;;;;;;2614813;54;20130;-75
2022/09/30 15:30:25;;;;;;;6.20;5.50;;;18.60;25.00;;;;;;2617353;54;20419;-74
2022/09/30 15:36:16;;;;;;;4.90;4.50;;;17.10;27.50;;;;;;2616964;54;20394;-75
2022/09/30 15:42:04;;;;;;;6.82;6.13;;;16.70;31.90;;;;;;2616036;54;20403;-74
2022/09/30 15:47:56;;;;;;;5.43;5.00;;;16.70;30.30;;;;;;2616418;39;20808;-73
2022/09/30 15:53:46;;;;;;;5.60;5.10;;;16.60;32.00;;;;;;2614334;54;21015;-74
2022/09/30 16:09:38;;;;;;;6.90;5.57;;;18.20;26.50;;;;;;2612718;54;20384;-74
2022/09/30 16:15:25;;;;;;;18.33;16.53;;;18.10;27.50;;;;;;2614017;54;20147;-74
2022/09/30 16:21:43;;;;;;;5.53;5.10;;;17.80;28.10;;;;;;2614478;54;20162;-75
2022/09/30 16:27:32;;;;;;;6.40;5.57;;;17.00;31.20;;;;;;2613480;54;20438;-74
2022/09/30 16:33:19;;;;;;;6.60;6.00;;;16.80;32.40;;;;;;2615913;54;20507;-74
2022/09/30 16:39:11;;;;;;;7.27;6.53;;;16.50;33.10;;;;;;2614301;54;20134;-73
2022/09/30 16:45:00;;;;;;;8.30;5.67;;;16.80;29.80;;;;;;2613591;54;20412;-75
2022/09/30 16:51:25;;;;;;;7.43;5.53;;;16.20;33.70;;;;;;2615370;39;20741;-74
2022/09/30 16:57:13;;;;;;;8.53;6.60;;;15.10;49.80;;;;;;2612914;54;20426;-74
2022/09/30 17:03:01;;;;;;;28.07;9.10;;;14.70;57.30;;;;;;2615742;54;20399;-73
2022/09/30 17:08:49;;;;;;;12.43;6.67;;;14.40;71.90;;;;;;2615298;54;20165;-74
2022/09/30 17:14:38;;;;;;;67.33;12.20;;;14.10;80.90;;;;;;2615655;54;20631;-74
2022/09/30 17:20:26;;;;;;;21.67;7.93;;;14.00;88.20;;;;;;2613424;54;20378;-75
2022/09/30 17:26:14;;;;;;;34.42;25.83;;;13.60;94.60;;;;;;2616153;54;20142;-74
2022/09/30 17:32:02;;;;;;;31.97;10.40;;;13.40;99.90;;;;;;2616179;54;20438;-75
2022/09/30 17:37:49;;;;;;;12.83;6.10;;;13.10;99.90;;;;;;2616035;39;20301;-74
2022/09/30 17:43:38;;;;;;;33.63;7.73;;;13.20;99.90;;;;;;2616241;54;20157;-75
2022/09/30 17:49:33;;;;;;;8.25;5.22;;;12.80;99.90;;;;;;2615714;54;20402;-75
2022/09/30 17:55:21;;;;;;;9.60;5.80;;;12.60;99.90;;;;;;2616617;54;20366;-73
2022/09/30 18:04:33;;;;;;;9.85;8.05;;;12.50;99.90;;;;;;2615604;54;20142;-75
2022/09/30 18:10:21;;;;;;;8.30;6.00;;;12.50;99.90;;;;;;2616292;54;20419;-74
2022/09/30 18:16:08;;;;;;;7.10;6.10;;;12.70;99.90;;;;;;2616585;54;20130;-74
2022/09/30 18:21:56;;;;;;;6.50;5.90;;;12.50;99.90;;;;;;2616330;54;20134;-73
2022/09/30 18:27:45;;;;;;;7.88;7.10;;;12.60;99.90;;;;;;2615938;39;20544;-75
2022/09/30 18:33:34;;;;;;;14.02;7.35;;;12.50;99.90;;;;;;2614931;54;20405;-75
2022/09/30 18:39:21;;;;;;;8.23;7.28;;;12.70;99.90;;;;;;2614900;54;20369;-76
2022/09/30 18:45:11;;;;;;;8.30;7.60;;;13.00;99.90;;;;;;2615552;54;20639;-74
2022/09/30 18:51:03;;;;;;;10.30;7.70;;;13.00;99.90;;;;;;2614467;54;20374;-74
2022/09/30 18:56:51;;;;;;;7.40;6.80;;;12.80;99.90;;;;;;2615244;54;20519;-74
2022/09/30 18:59:55;;;;;;;7.70;6.70;;;12.80;99.90;;;;;;2615371;46;20495;-75
2022/09/30 19:02:21;;;;;;;10.27;8.60;;;12.70;99.90;;;;;;2615743;54;20163;-74
2022/09/30 19:08:10;;;;;;;17.63;13.40;;;12.50;99.90;;;;;;2615934;54;20170;-74
2022/09/30 19:14:00;;;;;;;7.33;6.43;;;12.20;99.90;;;;;;2615457;54;20532;-74
2022/09/30 19:19:49;;;;;;;7.30;6.50;;;12.40;99.90;;;;;;2614974;54;20406;-73
2022/09/30 19:25:40;;;;;;;8.57;6.80;;;12.40;99.90;;;;;;2615475;54;20417;-75
2022/09/30 19:31:28;;;;;;;6.03;5.57;;;12.20;99.90;;;;;;2616137;54;20122;-73
2022/09/30 19:37:16;;;;;;;7.33;6.63;;;12.10;99.90;;;;;;2615588;54;20130;-74
2022/09/30 19:43:03;;;;;;;11.23;7.70;;;12.10;99.90;;;;;;2616202;54;20131;-73
2022/09/30 19:48:51;;;;;;;7.70;7.07;;;12.00;99.90;;;;;;2615745;54;20169;-73
2022/09/30 19:54:39;;;;;;;10.10;8.00;;;11.80;99.90;;;;;;2615791;54;20122;-74
2022/09/30 20:04:30;;;;;;;7.77;6.97;;;11.00;99.90;;;;;;2616322;54;20170;-74
2022/09/30 20:10:18;;;;;;;8.80;7.97;;;11.60;99.90;;;;;;2616563;54;20389;-74
2022/09/30 20:16:09;;;;;;;8.47;7.63;;;11.80;99.90;;;;;;2618016;39;20460;-72
2022/09/30 20:21:57;;;;;;;9.23;7.40;;;11.70;99.90;;;;;;2617547;54;20415;-72
2022/09/30 20:27:45;;;;;;;7.77;6.30;;;11.70;99.90;;;;;;2617721;54;20370;-72
2022/09/30 20:33:35;;;;;;;6.10;5.60;;;11.90;99.90;;;;;;2617172;54;20382;-72
2022/09/30 20:39:23;;;;;;;7.70;7.00;;;12.20;99.90;;;;;;2617834;54;20393;-72
2022/09/30 20:45:12;;;;;;;8.07;6.00;;;12.30;99.90;;;;;;2617479;54;20118;-73
2022/09/30 20:51:09;;;;;;;5.43;4.97;;;12.40;99.90;;;;;;2617657;54;20387;-73
2022/09/30 20:56:57;;;;;;;4.80;4.45;;;12.50;99.90;;;;;;2617667;46;20490;-72
2022/09/30 21:00:00;;;;;;;5.87;5.37;;;12.50;99.90;;;;;;2617562;39;20561;-72
2022/09/30 21:02:26;;;;;;;7.73;5.30;;;12.50;99.90;;;;;;2616861;47;20262;-73
2022/09/30 21:08:15;;;;;;;5.03;4.63;;;12.60;99.90;;;;;;2617651;54;20431;-73
2022/09/30 21:14:03;;;;;;;5.50;5.00;;;12.70;99.90;;;;;;2617439;54;20371;-72
2022/09/30 21:19:51;;;;;;;5.30;4.80;;;12.60;99.90;;;;;;2618075;39;20519;-73
2022/09/30 21:25:39;;;;;;;4.83;4.43;;;12.70;99.90;;;;;;2617409;54;20935;-71
2022/09/30 21:31:27;;;;;;;5.40;5.00;;;12.80;99.90;;;;;;2617299;54;20506;-73
2022/09/30 21:37:14;;;;;;;4.77;4.47;;;12.80;99.90;;;;;;2617446;54;20169;-72
2022/09/30 21:43:02;;;;;;;5.30;4.73;;;12.90;99.90;;;;;;2617111;39;20760;-72
2022/09/30 21:48:52;;;;;;;5.60;5.10;;;12.80;99.90;;;;;;2617405;54;20130;-72
2022/09/30 21:54:39;;;;;;;5.32;4.93;;;12.90;99.90;;;;;;2617233;54;20952;-72
2022/09/30 22:04:27;;;;;;;5.10;4.70;;;13.00;99.90;;;;;;2617317;54;20384;-71
2022/09/30 22:10:15;;;;;;;5.27;4.77;;;12.90;99.90;;;;;;2617511;54;20388;-72
2022/09/30 22:16:05;;;;;;;5.90;5.40;;;12.90;99.90;;;;;;2617482;54;20572;-73
2022/09/30 22:21:53;;;;;;;6.43;5.83;;;12.90;99.90;;;;;;2616848;54;20382;-73
2022/09/30 22:27:41;;;;;;;6.07;5.57;;;13.00;99.90;;;;;;2617203;54;20431;-73
2022/09/30 22:39:35;;;;;;;8.40;5.63;;;13.10;99.90;;;;;;2616785;54;20912;-73
2022/09/30 22:45:24;;;;;;;5.73;5.23;;;13.00;99.90;;;;;;2616870;54;20483;-72
2022/09/30 22:48:27;;;;;;;6.07;5.40;;;13.00;99.90;;;;;;2616181;47;20422;-73
2022/09/30 22:50:53;;;;;;;6.30;5.70;;;13.00;99.90;;;;;;2616984;54;20450;-73
2022/09/30 22:56:40;;;;;;;6.40;5.73;;;13.10;99.90;;;;;;2617401;39;20210;-73
2022/09/30 23:00:00;;;;;;;7.17;5.20;;;13.00;99.90;;;;;;2616293;54;20494;-72
2022/09/30 23:02:25;;;;;;;7.20;5.77;;;13.10;99.90;;;;;;2616390;54;20143;-72
2022/09/30 23:08:13;;;;;;;6.63;6.03;;;13.00;99.90;;;;;;2616652;54;20179;-72
2022/09/30 23:14:02;;;;;;;6.60;5.90;;;13.10;99.90;;;;;;2616291;54;20403;-71
2022/09/30 23:19:49;;;;;;;6.83;6.27;;;13.00;99.90;;;;;;2616666;54;20366;-72
2022/09/30 23:25:37;;;;;;;6.63;6.03;;;13.00;99.90;;;;;;2616660;54;20118;-72
2022/09/30 23:31:25;;;;;;;7.53;6.70;;;13.00;99.90;;;;;;2616320;54;20153;-72
2022/09/30 23:37:13;;;;;;;5.90;5.40;;;13.00;99.90;;;;;;2616716;54;20374;-72
2022/09/30 23:43:00;;;;;;;6.30;5.80;;;13.00;99.90;;;;;;2617488;54;20129;-72
2022/09/30 23:48:48;;;;;;;6.43;5.70;;;13.00;99.90;;;;;;2617064;54;20134;-73
2022/09/30 23:54:36;;;;;;;7.03;5.77;;;13.00;99.90;;;;;;2617371;54;20255;-72
2022/09/30 23:57:21;;;;;;;5.87;5.10;;;13.00;99.90;;;;;;2617502;54;20423;-74
2022/09/30 23:59:46;;;;;;;6.47;5.90;;;13.10;99.90;;;;;;2616778;54;20155;-73
